Stations météo

réclame
Mon MeteoGroup
Monte Cimone, Italie (16134): Température de l'air & dewpoint: 15.10.2017 13:00:00 - 21.10.2017 13:00:00 (CEST)Monte Cimone, Italie (16134): Vitesse du vent: 15.10.2017 13:00:00 - 21.10.2017 13:00:00 (CEST)Monte Cimone, Italie (16134): Direction du vent: 15.10.2017 13:00:00 - 21.10.2017 13:00:00 (CEST)Monte Cimone, Italie (16134): visibility: 15.10.2017 13:00:00 - 21.10.2017 13:00:00 (CEST)Monte Cimone, Italie (16134): Ensoleillement: 15.10.2017 13:00:00 - 21.10.2017 13:00:00 (CEST)
Date & Time tt [°C] td [°C] ff [km/h] ff [knt] dd vv [km] sd [min]
21.10.2017 13:00:00 9,0 5,2 16 9 SW 20 0
21.10.2017 12:00:00 8,4 6,0 13 7 W - 0
21.10.2017 11:00:00 7,8 5,8 15 8 WSW - 0
21.10.2017 10:00:00 7,8 6,4 18 10 WSW - 0
21.10.2017 09:00:00 7,2 6,6 18 10 WSW - 36
21.10.2017 08:00:00 7,2 6,3 39 21 SW 10 0
21.10.2017 07:00:00 7,0 5,6 22 12 WSW 10 -
21.10.2017 06:00:00 7,4 5,4 18 10 WSW 50 -
21.10.2017 05:00:00 8,0 6,5 31 17 SW 20 -
21.10.2017 04:00:00 8,2 6,0 37 20 SW 30 -
21.10.2017 03:00:00 8,0 5,6 26 14 SW 30 -
21.10.2017 02:00:00 8,0 5,1 34 18 SW 30 -
21.10.2017 01:00:00 8,0 4,8 34 18 WSW 30 -
21.10.2017 00:00:00 8,8 3,2 28 15 SW 50 -
20.10.2017 23:00:00 9,2 2,5 29 16 SW 50 -
20.10.2017 22:00:00 9,0 -0,1 28 15 SW 50 -
20.10.2017 21:00:00 9,2 -9,3 26 14 WSW 50 -
20.10.2017 20:00:00 9,8 -8,8 24 13 WSW 50 -
20.10.2017 19:00:00 10,0 -6,8 28 15 SW 50 -
20.10.2017 18:00:00 10,4 -2,6 26 14 SW 50 36
20.10.2017 17:00:00 11,0 0,7 13 7 SW 50 60
20.10.2017 16:00:00 11,0 0,7 13 7 SSW 50 60
20.10.2017 15:00:00 11,6 -0,2 8 4 WSW 50 60
20.10.2017 14:00:00 11,2 -1,5 8 4 SW 50 60
20.10.2017 13:00:00 11,4 -1,4 9 5 SSW 50 60
20.10.2017 12:00:00 10,0 -3,0 15 8 SSW 50 60
20.10.2017 11:00:00 9,6 -4,0 21 11 SSW 50 60
20.10.2017 10:00:00 8,8 -7,0 22 12 S 50 60
20.10.2017 09:00:00 8,8 -9,6 11 6 S 50 60
20.10.2017 08:00:00 7,4 -7,4 5 3 SW 50 0
20.10.2017 07:00:00 7,0 -8,6 13 7 SSW 50 -
20.10.2017 06:00:00 7,6 -8,0 15 8 S 50 -
20.10.2017 05:00:00 7,4 -8,2 18 10 S 30 -
20.10.2017 04:00:00 7,4 -5,6 24 13 S 30 -
20.10.2017 03:00:00 7,4 -6,0 21 11 S 30 -
20.10.2017 02:00:00 8,4 -6,9 16 9 S 30 -
20.10.2017 01:00:00 8,6 -7,2 16 9 SSE 30 -
20.10.2017 00:00:00 8,6 -7,2 21 11 S 30 -
19.10.2017 23:00:00 9,0 -6,0 13 7 S 30 -
19.10.2017 22:00:00 9,4 -6,0 8 4 SSE 30 -
19.10.2017 21:00:00 8,8 -8,7 21 11 SSW 30 -
19.10.2017 20:00:00 8,4 -6,5 22 12 SSW 50 -
19.10.2017 19:00:00 9,0 -4,5 22 12 SSW 50 12
19.10.2017 18:00:00 10,0 -1,1 13 7 SSW 50 42
19.10.2017 17:00:00 11,6 0,4 11 6 SSW 50 60
19.10.2017 16:00:00 11,4 0,2 8 4 W 50 60
19.10.2017 15:00:00 12,0 1,0 5 3 WSW 50 60
19.10.2017 14:00:00 12,0 1,1 5 3 SW 50 60
19.10.2017 13:00:00 11,4 -0,1 5 3 SW 30 60
19.10.2017 12:00:00 10,6 0,9 5 3 WSW 10 60
19.10.2017 11:00:00 10,2 1,8 5 3 WSW 10 60
19.10.2017 10:00:00 9,4 1,1 5 3 W 10 60
19.10.2017 09:00:00 8,2 1,6 26 14 SSW 10 60
19.10.2017 08:00:00 7,8 -0,4 13 7 SSW 10 6
19.10.2017 07:00:00 8,0 -1,3 5 3 SSW 30 -
19.10.2017 06:00:00 8,0 -2,9 8 4 S 50 -
19.10.2017 05:00:00 8,0 -5,8 5 3 NE 50 -
19.10.2017 04:00:00 8,2 -6,0 4 2 NW 50 -
19.10.2017 03:00:00 8,0 -5,8 4 2 NNE 50 -
19.10.2017 02:00:00 8,8 -4,7 5 3 SSW 50 -
19.10.2017 01:00:00 8,8 -4,4 8 4 ESE 50 -
19.10.2017 00:00:00 8,6 -4,9 8 4 S 50 -
18.10.2017 23:00:00 8,4 -5,8 9 5 S 10 -
18.10.2017 22:00:00 8,4 -5,8 15 8 SSW 10 -
18.10.2017 21:00:00 8,8 -4,7 11 6 WSW 10 -
18.10.2017 20:00:00 8,8 -4,7 5 3 ENE 10 -
18.10.2017 19:00:00 9,0 -4,5 8 4 W 10 -
18.10.2017 18:00:00 10,0 -2,6 5 3 W 10 60
18.10.2017 17:00:00 10,8 -2,9 11 6 SW 50 60
18.10.2017 16:00:00 11,4 -2,8 8 4 WSW 10 60
18.10.2017 15:00:00 12,2 -2,0 9 5 SW 50 60
18.10.2017 14:00:00 12,0 -2,2 9 5 WSW 50 60
18.10.2017 13:00:00 11,4 -2,8 8 4 W 50 60
18.10.2017 12:00:00 11,2 -3,3 5 3 WNW 50 60
18.10.2017 11:00:00 10,6 -5,4 5 3 WNW 50 60
18.10.2017 10:00:00 9,4 -7,3 5 3 WNW 10 60
18.10.2017 09:00:00 9,0 -6,8 11 6 WSW 10 60
18.10.2017 08:00:00 8,0 -8,5 11 6 WSW 50 18
18.10.2017 07:00:00 9,0 -8,5 21 11 SW 50 -
18.10.2017 06:00:00 10,2 -8,0 24 13 SW 10 -
18.10.2017 05:00:00 10,4 -7,8 18 10 SW 30 -
18.10.2017 04:00:00 10,4 -9,3 21 11 WSW 30 -
18.10.2017 03:00:00 10,4 -9,3 21 11 WSW 30 -
18.10.2017 02:00:00 10,4 -9,3 16 9 WSW 30 -
18.10.2017 01:00:00 10,4 -10,4 22 12 W 10 -
18.10.2017 00:00:00 10,6 -12,7 16 9 W 30 -
17.10.2017 23:00:00 10,8 -12,6 16 9 W 30 -
17.10.2017 22:00:00 11,4 -9,5 22 12 W 10 -
17.10.2017 21:00:00 11,4 -9,0 16 9 W 30 -
17.10.2017 20:00:00 11,4 -7,4 24 13 WNW 30 -
17.10.2017 19:00:00 12,0 -5,0 26 14 NW 10 -
17.10.2017 18:00:00 12,4 -1,5 18 10 W 30 30
17.10.2017 17:00:00 13,2 -2,3 13 7 W 30 42
17.10.2017 16:00:00 15,2 -0,1 13 7 WSW 10 48
17.10.2017 15:00:00 15,2 -0,5 9 5 WSW 10 60
17.10.2017 14:00:00 15,0 -4,9 8 4 W 30 42
17.10.2017 13:00:00 14,4 -4,9 9 5 W 10 60
17.10.2017 12:00:00 12,4 -11,3 4 2 NW 10 60
17.10.2017 11:00:00 11,8 -13,2 13 7 NW 10 60
17.10.2017 10:00:00 10,6 -14,2 18 10 NNW 10 60
17.10.2017 09:00:00 10,4 -14,3 26 14 NW 10 48
17.10.2017 08:00:00 10,0 -14,7 24 13 WNW 10 6
17.10.2017 07:00:00 10,4 -13,6 15 8 W 50 -
17.10.2017 06:00:00 10,4 -18,8 11 6 W 10 -
17.10.2017 05:00:00 10,4 -15,1 8 4 W 50 -
17.10.2017 04:00:00 10,6 -15,8 9 5 W 50 -
17.10.2017 03:00:00 10,6 -16,7 9 5 NNW 50 -
17.10.2017 02:00:00 10,4 -16,0 9 5 NNW 10 -
17.10.2017 01:00:00 10,4 -16,8 13 7 NNW 50 -
17.10.2017 00:00:00 10,4 -16,8 15 8 NNW 50 -
16.10.2017 23:00:00 10,6 -16,7 16 9 NNW 50 -
16.10.2017 22:00:00 10,8 -14,0 26 14 NNW 10 -
16.10.2017 21:00:00 11,6 -13,4 26 14 NW 50 -
16.10.2017 20:00:00 11,8 -13,2 28 15 NW 10 0
16.10.2017 19:00:00 11,8 -16,7 34 18 NW 10 12
16.10.2017 18:00:00 12,4 -9,3 28 15 WNW 50 48
16.10.2017 17:00:00 13,4 -5,2 16 9 SW 50 60
16.10.2017 16:00:00 14,2 -6,1 13 7 SW 50 60
16.10.2017 15:00:00 14,6 -6,3 13 7 WSW 50 60
16.10.2017 14:00:00 14,0 -8,0 8 4 SW 50 60
16.10.2017 13:00:00 13,6 -10,3 8 4 SW 10 60
16.10.2017 12:00:00 13,6 -11,0 9 5 SW 10 60
16.10.2017 11:00:00 14,2 -13,8 4 2 SW 10 60
16.10.2017 10:00:00 13,8 -16,2 4 2 WSW 10 60
16.10.2017 09:00:00 12,2 -15,4 16 9 W 70 60
16.10.2017 08:00:00 11,4 -16,1 15 8 W 50 12
16.10.2017 07:00:00 11,6 -15,0 18 10 W 50 -
16.10.2017 06:00:00 11,4 -16,1 21 11 W 50 -
16.10.2017 05:00:00 11,0 -17,3 18 10 W 50 -
16.10.2017 04:00:00 11,0 -19,5 9 5 W 50 -
16.10.2017 03:00:00 11,0 -19,5 13 7 W 50 -
16.10.2017 02:00:00 11,2 -18,2 9 5 W 50 -
16.10.2017 01:00:00 11,2 -19,3 13 7 W 50 -
16.10.2017 00:00:00 11,2 -18,2 16 9 W 10 -
15.10.2017 23:00:00 11,2 -19,3 21 11 W 10 -
15.10.2017 22:00:00 11,2 -18,2 21 11 WSW 50 -
15.10.2017 21:00:00 11,2 -16,2 22 12 WSW 50 -
15.10.2017 20:00:00 11,2 -13,0 22 12 SW 50 -
15.10.2017 19:00:00 11,0 -13,1 22 12 SW 50 -
15.10.2017 18:00:00 11,8 -8,6 22 12 SW 35 48
15.10.2017 17:00:00 13,0 -5,5 21 11 SW 35 60
15.10.2017 16:00:00 13,6 -5,5 8 4 SW 10 60
15.10.2017 15:00:00 14,6 -6,3 9 5 SW 10 60
15.10.2017 14:00:00 14,4 -8,9 5 3 WSW 50 60
15.10.2017 13:00:00 14,0 -10,7 8 4 SSW 50 60

tt = Température de l'air
td = dewpoint
ff = Vitesse du vent
dd = Direction du vent
vv = visibility
sd = Ensoleillement

stations d'obs. à proximité